createdAt,value
2022-10-05T00:01:31.063Z,7.93
2022-10-05T00:04:11.744Z,7.63
2022-10-05T00:06:40.244Z,9.07
2022-10-05T00:09:15.224Z,8.00
2022-10-05T00:11:44.835Z,8.50
2022-10-05T00:14:18.343Z,7.60
2022-10-05T00:16:48.043Z,8.15
2022-10-05T00:19:21.409Z,7.07
2022-10-05T00:21:50.332Z,7.17
2022-10-05T00:24:20.414Z,8.23
2022-10-05T00:26:52.838Z,8.25
2022-10-05T00:29:26.184Z,6.90
2022-10-05T00:31:56.394Z,8.10
2022-10-05T00:34:27.210Z,7.70
2022-10-05T00:36:58.663Z,7.53
2022-10-05T00:39:29.580Z,6.53
2022-10-05T00:42:21.736Z,6.67
2022-10-05T00:44:57.554Z,7.13
2022-10-05T00:47:37.105Z,6.47
2022-10-05T00:50:31.723Z,6.60
2022-10-05T00:53:11.519Z,6.53
2022-10-05T00:55:55.358Z,6.57
2022-10-05T00:58:38.154Z,6.50
2022-10-05T01:01:11.259Z,6.50
2022-10-05T01:03:54.239Z,6.70
2022-10-05T01:06:31.424Z,6.63
2022-10-05T01:09:09.344Z,7.00
2022-10-05T01:11:46.224Z,6.30
2022-10-05T01:14:21.199Z,6.27
2022-10-05T01:16:55.936Z,6.43
2022-10-05T01:19:50.846Z,6.57
2022-10-05T01:22:36.297Z,7.00
2022-10-05T01:25:21.077Z,6.10
2022-10-05T01:27:59.133Z,5.70
2022-10-05T01:30:36.819Z,6.53
2022-10-05T01:33:16.607Z,6.80
2022-10-05T01:35:57.691Z,6.13
2022-10-05T01:38:35.911Z,6.17
2022-10-05T01:41:20.104Z,6.00
2022-10-05T01:43:54.576Z,8.03
2022-10-05T01:46:31.145Z,10.60
2022-10-05T01:49:15.679Z,8.83
2022-10-05T01:54:30.797Z,7.93
2022-10-05T01:57:10.333Z,7.50
2022-10-05T01:59:56.123Z,7.60
2022-10-05T02:02:29.009Z,8.40
2022-10-05T02:05:03.803Z,7.93
2022-10-05T02:07:37.545Z,7.63
2022-10-05T02:10:14.502Z,6.20
2022-10-05T02:12:45.521Z,6.95
2022-10-05T02:15:19.730Z,8.03
2022-10-05T02:17:51.042Z,7.50
2022-10-05T02:20:25.671Z,7.63
2022-10-05T02:22:57.711Z,8.07
2022-10-05T02:25:30.826Z,7.77
2022-10-05T02:28:05.986Z,8.70
2022-10-05T02:30:41.348Z,6.73
2022-10-05T02:33:18.797Z,6.97
2022-10-05T02:35:47.303Z,7.10
2022-10-05T02:38:28.213Z,8.03
2022-10-05T02:41:06.396Z,8.00
2022-10-05T02:43:46.140Z,7.70
2022-10-05T02:46:25.626Z,8.17
2022-10-05T02:49:11.104Z,8.40
2022-10-05T02:51:48.819Z,8.87
2022-10-05T02:54:28.575Z,7.57
2022-10-05T02:57:04.223Z,7.37
2022-10-05T02:59:38.572Z,8.77
2022-10-05T03:02:15.397Z,8.60
2022-10-05T03:04:52.032Z,8.03
2022-10-05T03:07:27.641Z,8.57
2022-10-05T03:10:05.248Z,8.90
2022-10-05T03:12:49.051Z,8.07
2022-10-05T03:15:35.459Z,8.78
2022-10-05T03:18:16.057Z,8.65
2022-10-05T03:20:54.603Z,8.17
2022-10-05T03:23:35.572Z,9.10
2022-10-05T03:26:19.083Z,8.10
2022-10-05T03:28:55.963Z,8.25
2022-10-05T03:31:35.147Z,8.83
2022-10-05T03:34:11.233Z,7.50
2022-10-05T03:36:49.268Z,8.50
2022-10-05T03:39:27.292Z,9.03
2022-10-05T03:42:07.692Z,9.10
2022-10-05T03:44:46.083Z,9.80
2022-10-05T03:47:24.971Z,10.13
2022-10-05T03:50:21.453Z,9.10
2022-10-05T03:52:56.132Z,8.07
2022-10-05T03:55:31.252Z,8.83
2022-10-05T03:58:07.454Z,9.10
2022-10-05T04:00:40.133Z,7.67
2022-10-05T04:03:15.834Z,7.43
2022-10-05T04:05:50.583Z,8.57
2022-10-05T04:08:25.889Z,9.47
2022-10-05T04:11:04.826Z,10.17
2022-10-05T04:13:39.970Z,8.67
2022-10-05T04:16:19.769Z,8.17
2022-10-05T04:18:56.817Z,7.93
2022-10-05T04:21:30.246Z,7.53
2022-10-05T04:24:04.469Z,8.88
2022-10-05T04:26:41.273Z,7.87
2022-10-05T04:29:19.259Z,7.63
2022-10-05T04:32:05.190Z,8.40
2022-10-05T04:35:02.556Z,7.70
2022-10-05T04:37:46.450Z,8.03
2022-10-05T04:40:34.006Z,8.47
2022-10-05T04:43:13.756Z,21.57
2022-10-05T04:45:58.136Z,24.63
2022-10-05T04:51:20.634Z,37.03
2022-10-05T04:53:59.263Z,39.80
2022-10-05T04:56:35.251Z,22.17
2022-10-05T04:59:35.332Z,14.83
2022-10-05T05:02:13.532Z,11.20
2022-10-05T05:04:56.292Z,8.83
2022-10-05T05:07:37.873Z,7.93
2022-10-05T05:10:40.771Z,9.07
2022-10-05T05:13:23.685Z,10.60
2022-10-05T05:15:58.738Z,33.30
2022-10-05T05:18:46.194Z,26.40
2022-10-05T05:21:30.573Z,22.43
2022-10-05T05:24:09.728Z,17.53
2022-10-05T05:26:55.552Z,30.50
2022-10-05T05:29:38.517Z,39.23
2022-10-05T05:32:14.054Z,26.40
2022-10-05T05:35:00.193Z,19.07
2022-10-05T05:37:35.452Z,20.30
2022-10-05T05:40:19.963Z,14.00
2022-10-05T05:42:58.103Z,18.37
2022-10-05T05:45:40.436Z,14.43
2022-10-05T05:48:18.077Z,11.87
2022-10-05T05:50:56.165Z,10.50
2022-10-05T05:53:31.951Z,11.90
2022-10-05T05:56:09.446Z,11.30
2022-10-05T05:58:47.413Z,12.67
2022-10-05T06:01:33.359Z,15.60
2022-10-05T06:04:14.600Z,15.73
2022-10-05T06:06:48.794Z,13.67
2022-10-05T06:09:26.021Z,10.53
2022-10-05T06:12:15.807Z,15.40
2022-10-05T06:14:50.434Z,18.40
2022-10-05T06:17:24.806Z,23.80
2022-10-05T06:20:02.436Z,17.33
2022-10-05T06:22:41.687Z,16.40
2022-10-05T06:25:24.368Z,12.33
2022-10-05T06:28:09.832Z,9.47
2022-10-05T06:30:51.799Z,8.00
2022-10-05T06:33:37.743Z,7.03
2022-10-05T06:36:17.612Z,7.23
2022-10-05T06:39:16.950Z,8.07
2022-10-05T06:42:01.378Z,7.80
2022-10-05T06:45:00.023Z,7.17
2022-10-05T06:47:56.116Z,7.43
2022-10-05T06:50:42.609Z,7.50
2022-10-05T06:53:40.653Z,6.20
2022-10-05T06:56:17.358Z,6.87
2022-10-05T06:59:01.763Z,6.43
2022-10-05T07:01:41.240Z,6.60
2022-10-05T07:04:46.047Z,7.27
2022-10-05T07:07:23.339Z,6.43
2022-10-05T07:10:06.057Z,6.77
2022-10-05T07:12:49.756Z,7.60
2022-10-05T07:15:31.326Z,6.90
2022-10-05T07:18:14.398Z,8.63
2022-10-05T07:20:53.231Z,7.50
2022-10-05T07:23:41.748Z,15.67
2022-10-05T07:26:18.856Z,12.60
2022-10-05T07:28:54.424Z,12.37
2022-10-05T07:31:34.962Z,10.83
2022-10-05T07:34:09.291Z,15.43
2022-10-05T07:37:04.090Z,9.97
2022-10-05T07:42:44.582Z,6.80
2022-10-05T07:45:25.301Z,5.97
2022-10-05T07:47:57.213Z,5.60
2022-10-05T07:50:34.298Z,5.83
2022-10-05T07:53:11.719Z,5.10
2022-10-05T07:55:47.338Z,5.20
2022-10-05T07:58:23.493Z,4.77
2022-10-05T08:01:04.207Z,4.83
2022-10-05T08:03:47.289Z,4.85
2022-10-05T08:06:32.259Z,4.43
2022-10-05T08:09:12.447Z,4.90
2022-10-05T08:11:51.955Z,4.20
2022-10-05T08:14:28.538Z,4.77
2022-10-05T08:17:00.727Z,4.40
2022-10-05T08:19:40.375Z,4.63
2022-10-05T08:22:18.028Z,4.07
2022-10-05T08:24:57.002Z,4.00
2022-10-05T08:27:28.750Z,4.40
2022-10-05T08:30:04.342Z,4.43
2022-10-05T08:32:38.721Z,4.13
2022-10-05T08:37:46.106Z,4.30
2022-10-05T08:40:46.064Z,4.20
2022-10-05T08:43:37.164Z,4.17
2022-10-05T08:46:38.095Z,3.93
2022-10-05T08:49:57.635Z,3.47
2022-10-05T08:52:29.172Z,3.73
2022-10-05T08:55:29.883Z,4.03
2022-10-05T08:58:33.996Z,4.30
2022-10-05T09:01:11.579Z,4.35
2022-10-05T09:04:21.807Z,3.33
2022-10-05T09:07:27.512Z,4.67
2022-10-05T09:10:32.858Z,4.67
2022-10-05T09:13:26.198Z,3.77
2022-10-05T09:16:24.769Z,5.00
2022-10-05T09:19:15.491Z,4.57
2022-10-05T09:21:51.332Z,4.50
2022-10-05T09:24:39.523Z,4.93
2022-10-05T09:27:13.988Z,3.97
2022-10-05T09:30:19.235Z,6.57
2022-10-05T09:33:13.541Z,7.33
2022-10-05T09:38:38.001Z,4.20
2022-10-05T09:41:40.114Z,5.33
2022-10-05T09:44:47.509Z,8.70
2022-10-05T09:47:51.209Z,4.67
2022-10-05T09:50:55.156Z,3.93
2022-10-05T09:53:44.301Z,4.63
2022-10-05T09:59:36.412Z,4.30
2022-10-05T10:02:17.935Z,7.20
2022-10-05T10:05:06.617Z,5.40
2022-10-05T10:07:53.971Z,5.47
2022-10-05T10:10:48.531Z,4.27
2022-10-05T10:13:42.264Z,3.53
2022-10-05T10:16:18.619Z,4.37
2022-10-05T10:19:06.845Z,3.90
2022-10-05T10:22:00.522Z,3.67
2022-10-05T10:25:01.500Z,4.00
2022-10-05T10:27:57.292Z,3.53
2022-10-05T10:30:52.760Z,3.67
2022-10-05T10:33:46.346Z,4.00
2022-10-05T10:36:21.545Z,3.23
2022-10-05T10:39:00.328Z,4.10
2022-10-05T10:41:59.362Z,3.60
2022-10-05T10:45:01.519Z,3.45
2022-10-05T10:47:40.440Z,3.30
2022-10-05T10:51:05.114Z,3.80
2022-10-05T10:54:11.726Z,3.30
2022-10-05T10:57:03.490Z,3.67
2022-10-05T11:00:02.966Z,3.80
2022-10-05T11:02:54.693Z,3.17
2022-10-05T11:05:46.434Z,3.70
2022-10-05T11:08:56.755Z,3.77
2022-10-05T11:12:10.020Z,3.60
2022-10-05T11:14:54.142Z,3.60
2022-10-05T11:17:56.244Z,3.10
2022-10-05T11:21:08.983Z,3.00
2022-10-05T11:24:15.366Z,3.03
2022-10-05T11:27:02.684Z,2.75
2022-10-05T11:30:03.191Z,3.00
2022-10-05T11:32:58.267Z,3.50
2022-10-05T11:36:10.606Z,2.57
2022-10-05T11:39:01.653Z,3.27
2022-10-05T11:41:53.463Z,3.60
2022-10-05T11:44:48.020Z,2.73
2022-10-05T11:47:23.776Z,3.30
2022-10-05T11:50:06.013Z,3.53
2022-10-05T11:52:44.401Z,3.83
2022-10-05T11:55:27.681Z,3.50
2022-10-05T11:58:01.389Z,3.58
2022-10-05T12:00:39.952Z,4.20
2022-10-05T12:03:25.485Z,3.63
2022-10-05T12:06:08.695Z,3.70
2022-10-05T12:08:47.890Z,3.73
2022-10-05T12:11:33.781Z,3.90
2022-10-05T12:14:08.946Z,4.07
2022-10-05T12:16:47.237Z,3.80
2022-10-05T12:19:29.805Z,3.60
2022-10-05T12:22:03.698Z,4.00
2022-10-05T12:24:54.571Z,3.97
2022-10-05T12:27:27.421Z,4.30
2022-10-05T12:30:06.204Z,3.87
2022-10-05T12:32:41.309Z,4.17
2022-10-05T12:35:30.017Z,3.77
2022-10-05T12:38:16.729Z,3.80
2022-10-05T12:40:51.066Z,4.00
2022-10-05T12:43:31.270Z,4.10
2022-10-05T12:46:09.351Z,4.00
2022-10-05T12:49:22.128Z,3.70
2022-10-05T12:51:56.350Z,4.03
2022-10-05T12:54:38.748Z,3.87
2022-10-05T12:57:19.874Z,3.77
2022-10-05T13:00:02.078Z,3.97
2022-10-05T13:02:40.794Z,3.43
2022-10-05T13:05:23.068Z,3.83
2022-10-05T13:08:17.836Z,3.80
2022-10-05T13:10:52.681Z,4.23
2022-10-05T13:13:35.758Z,4.27
2022-10-05T13:16:17.119Z,4.90
2022-10-05T13:19:02.134Z,4.23
2022-10-05T13:21:40.840Z,4.50
2022-10-05T13:24:21.903Z,3.60
2022-10-05T13:26:58.227Z,4.40
2022-10-05T13:29:33.033Z,4.30
2022-10-05T13:32:12.406Z,4.07
2022-10-05T13:34:48.615Z,4.80
2022-10-05T13:37:29.071Z,4.00
2022-10-05T13:40:15.675Z,4.33
2022-10-05T13:42:52.041Z,4.00
2022-10-05T13:45:24.620Z,4.30
2022-10-05T13:48:16.246Z,4.10
2022-10-05T13:50:50.561Z,4.03
2022-10-05T13:53:28.225Z,3.87
2022-10-05T13:56:00.969Z,4.10
2022-10-05T13:58:39.251Z,3.60
2022-10-05T14:01:15.731Z,4.03
2022-10-05T14:04:05.586Z,3.53
2022-10-05T14:06:37.119Z,3.77
2022-10-05T14:09:13.532Z,3.53
2022-10-05T14:12:05.762Z,4.10
2022-10-05T14:14:45.099Z,4.37
2022-10-05T14:17:17.565Z,4.07
2022-10-05T14:19:54.077Z,3.77
2022-10-05T14:22:24.472Z,4.10
2022-10-05T14:25:02.979Z,4.73
2022-10-05T14:27:35.983Z,4.00
2022-10-05T14:30:22.995Z,4.00
2022-10-05T14:32:55.866Z,3.97
2022-10-05T14:35:28.409Z,3.47
2022-10-05T14:38:00.952Z,4.00
2022-10-05T14:40:32.448Z,4.20
2022-10-05T14:43:19.908Z,4.10
2022-10-05T14:46:00.583Z,4.67
2022-10-05T14:48:43.611Z,4.57
2022-10-05T14:51:24.367Z,4.23
2022-10-05T14:54:02.519Z,4.67
2022-10-05T14:56:49.617Z,5.20
2022-10-05T14:59:39.530Z,4.50
2022-10-05T15:02:28.355Z,4.10
2022-10-05T15:05:07.400Z,3.80
2022-10-05T15:07:40.887Z,3.25
2022-10-05T15:10:29.442Z,3.52
2022-10-05T15:13:10.701Z,3.17
2022-10-05T15:15:49.426Z,3.80
2022-10-05T15:18:39.721Z,3.53
2022-10-05T15:21:31.447Z,3.83
2022-10-05T15:24:05.377Z,3.70
2022-10-05T15:29:25.491Z,4.40
2022-10-05T15:32:02.651Z,3.77
2022-10-05T15:34:37.310Z,3.57
2022-10-05T15:37:16.487Z,3.83
2022-10-05T15:39:52.744Z,4.00
2022-10-05T15:42:29.851Z,4.37
2022-10-05T15:45:06.542Z,4.87
2022-10-05T15:47:46.493Z,5.13
2022-10-05T15:50:22.884Z,5.43
2022-10-05T15:52:56.488Z,5.53
2022-10-05T15:55:35.943Z,6.00
2022-10-05T15:58:38.361Z,5.57
2022-10-05T16:01:12.124Z,4.80
2022-10-05T16:06:49.281Z,4.87
2022-10-05T16:09:35.622Z,4.67
2022-10-05T16:12:25.867Z,4.70
2022-10-05T16:15:15.760Z,4.60
2022-10-05T16:18:02.162Z,4.10
2022-10-05T16:20:41.340Z,4.20
2022-10-05T16:23:17.146Z,4.50
2022-10-05T16:26:00.830Z,4.53
2022-10-05T16:28:39.292Z,3.70
2022-10-05T16:31:18.119Z,4.10
2022-10-05T16:34:00.603Z,4.57
2022-10-05T16:36:43.975Z,4.40
2022-10-05T16:39:22.095Z,4.17
2022-10-05T16:41:59.947Z,4.47
2022-10-05T16:44:41.772Z,4.90
2022-10-05T16:47:36.295Z,5.10
2022-10-05T16:50:38.814Z,4.23
2022-10-05T16:53:17.655Z,4.63
2022-10-05T16:55:49.591Z,5.23
2022-10-05T16:58:25.274Z,14.40
2022-10-05T17:01:10.858Z,8.07
2022-10-05T17:03:53.394Z,5.50
2022-10-05T17:06:53.524Z,5.47
2022-10-05T17:09:49.256Z,6.15
2022-10-05T17:12:31.858Z,5.67
2022-10-05T17:15:14.067Z,5.13
2022-10-05T17:18:01.805Z,5.70
2022-10-05T17:20:44.042Z,5.10
2022-10-05T17:23:29.778Z,4.80
2022-10-05T17:26:10.305Z,4.53
2022-10-05T17:28:41.646Z,4.67
2022-10-05T17:31:16.994Z,5.70
2022-10-05T17:34:26.663Z,4.83
2022-10-05T17:37:15.886Z,8.47
2022-10-05T17:39:50.872Z,27.67
2022-10-05T17:42:48.671Z,7.87
2022-10-05T17:46:05.295Z,6.00
2022-10-05T17:48:53.689Z,34.63
2022-10-05T17:52:19.239Z,56.10
2022-10-05T17:55:27.822Z,25.80
2022-10-05T17:57:59.251Z,9.40
2022-10-05T18:00:40.157Z,5.90
2022-10-05T18:03:35.710Z,5.67
2022-10-05T18:06:36.847Z,4.57
2022-10-05T18:09:49.462Z,4.80
2022-10-05T18:12:44.899Z,4.60
2022-10-05T18:15:48.853Z,5.63
2022-10-05T18:18:57.076Z,5.37
2022-10-05T18:21:37.261Z,4.50
2022-10-05T18:24:44.727Z,5.77
2022-10-05T18:27:31.610Z,4.80
2022-10-05T18:30:15.004Z,4.50
2022-10-05T18:33:33.294Z,5.87
2022-10-05T18:36:11.984Z,5.07
2022-10-05T18:38:52.815Z,5.73
2022-10-05T18:41:34.313Z,6.20
2022-10-05T18:44:19.082Z,6.03
2022-10-05T18:46:58.421Z,9.83
2022-10-05T18:49:42.695Z,5.30
2022-10-05T18:54:57.269Z,4.73
2022-10-05T18:57:50.322Z,5.53
2022-10-05T19:00:22.886Z,6.50
2022-10-05T19:03:00.468Z,4.67
2022-10-05T19:05:47.974Z,4.83
2022-10-05T19:18:28.357Z,5.30
2022-10-05T19:21:10.642Z,4.70
2022-10-05T19:23:56.002Z,4.50
2022-10-05T19:26:49.397Z,4.87
2022-10-05T19:29:35.779Z,5.07
2022-10-05T19:32:18.121Z,5.63
2022-10-05T19:35:02.688Z,4.70
2022-10-05T19:37:40.226Z,4.57
2022-10-05T19:40:33.929Z,4.67
2022-10-05T19:43:23.827Z,5.17
2022-10-05T19:46:11.094Z,4.60
2022-10-05T19:48:44.033Z,5.43
2022-10-05T19:51:17.484Z,4.80
2022-10-05T19:53:49.486Z,4.67
2022-10-05T19:56:20.593Z,10.83
2022-10-05T19:58:51.353Z,5.80
2022-10-05T20:01:30.084Z,4.83
2022-10-05T20:04:10.058Z,4.70
2022-10-05T20:06:41.788Z,5.13
2022-10-05T20:09:21.307Z,4.27
2022-10-05T20:12:03.649Z,7.03
2022-10-05T20:14:59.163Z,10.60
2022-10-05T20:17:49.435Z,7.20
2022-10-05T20:20:38.756Z,6.93
2022-10-05T20:23:25.918Z,5.23
2022-10-05T20:26:14.422Z,4.80
2022-10-05T20:28:43.931Z,4.60
2022-10-05T20:31:13.945Z,5.53
2022-10-05T20:33:42.595Z,5.27
2022-10-05T20:36:10.975Z,4.97
2022-10-05T20:38:41.298Z,5.30
2022-10-05T20:41:09.802Z,4.97
2022-10-05T20:43:39.554Z,5.40
2022-10-05T20:46:08.026Z,6.00
2022-10-05T20:48:46.075Z,5.77
2022-10-05T20:51:17.402Z,5.13
2022-10-05T20:53:48.664Z,5.67
2022-10-05T20:56:19.304Z,5.57
2022-10-05T20:58:47.818Z,7.77
2022-10-05T21:01:17.803Z,7.53
2022-10-05T21:03:46.980Z,6.83
2022-10-05T21:06:17.441Z,6.63
2022-10-05T21:08:46.210Z,5.90
2022-10-05T21:11:14.886Z,6.00
2022-10-05T21:13:44.668Z,5.20
2022-10-05T21:16:16.148Z,5.67
2022-10-05T21:18:46.710Z,5.60
2022-10-05T21:21:16.701Z,5.43
2022-10-05T21:23:45.137Z,5.33
2022-10-05T21:26:15.061Z,4.90
2022-10-05T21:28:43.661Z,5.77
2022-10-05T21:31:12.280Z,5.67
2022-10-05T21:33:40.697Z,5.77
2022-10-05T21:36:09.493Z,5.43
2022-10-05T21:38:38.540Z,6.03
2022-10-05T21:41:07.551Z,5.23
2022-10-05T21:43:39.092Z,5.23
2022-10-05T21:46:08.382Z,5.60
2022-10-05T21:48:39.073Z,5.50
2022-10-05T21:51:10.061Z,5.23
2022-10-05T21:53:42.329Z,6.17
2022-10-05T21:56:16.359Z,6.33
2022-10-05T21:58:46.784Z,5.17
2022-10-05T22:01:20.158Z,5.30
2022-10-05T22:03:51.225Z,5.10
2022-10-05T22:06:26.267Z,5.75
2022-10-05T22:08:54.983Z,5.60
2022-10-05T22:11:25.408Z,6.00
2022-10-05T22:14:01.809Z,5.33
2022-10-05T22:16:32.797Z,5.93
2022-10-05T22:19:10.706Z,5.57
2022-10-05T22:21:41.090Z,5.83
2022-10-05T22:24:10.929Z,5.47
2022-10-05T22:26:40.045Z,6.00
2022-10-05T22:29:09.391Z,5.30
2022-10-05T22:31:38.726Z,5.17
2022-10-05T22:34:07.215Z,5.90
2022-10-05T22:36:36.889Z,5.83
2022-10-05T22:39:05.277Z,5.47
2022-10-05T22:41:34.006Z,5.77
2022-10-05T22:44:03.758Z,5.40
2022-10-05T22:46:32.184Z,5.40
2022-10-05T22:49:06.100Z,6.00
2022-10-05T22:51:34.671Z,5.57
2022-10-05T22:54:04.358Z,5.30
2022-10-05T22:56:32.762Z,6.20
2022-10-05T22:59:02.844Z,5.23
2022-10-05T23:01:31.336Z,5.97
2022-10-05T23:04:00.264Z,5.37
2022-10-05T23:06:30.181Z,5.60
2022-10-05T23:08:58.638Z,5.37
2022-10-05T23:11:28.223Z,6.13
2022-10-05T23:13:58.182Z,5.37
2022-10-05T23:16:32.839Z,5.20
2022-10-05T23:19:02.989Z,6.23
2022-10-05T23:21:31.529Z,5.53
2022-10-05T23:23:59.966Z,6.17
2022-10-05T23:26:28.467Z,5.70
2022-10-05T23:28:57.331Z,5.70
2022-10-05T23:31:29.340Z,5.17
2022-10-05T23:33:57.985Z,5.90
2022-10-05T23:36:31.827Z,5.20
2022-10-05T23:39:00.337Z,5.90
2022-10-05T23:41:29.006Z,6.03
2022-10-05T23:43:57.483Z,5.63
2022-10-05T23:46:26.016Z,5.80
2022-10-05T23:48:54.449Z,6.03
2022-10-05T23:51:23.043Z,6.17
2022-10-05T23:53:51.473Z,5.50
2022-10-05T23:56:19.944Z,5.67
2022-10-05T23:58:48.662Z,5.63
